sensor_id;sensor_type;location;lat;lon;timestamp;pressure;altitude;pressure_sealevel;temperature;humidity
69535;BME280;56754;51.568;5.048;2023-03-23T00:00:51;100188.66;;;14.61;67.23
69535;BME280;56754;51.568;5.048;2023-03-23T00:03:16;100203.97;;;14.61;67.32
69535;BME280;56754;51.568;5.048;2023-03-23T00:05:41;100190.91;;;14.59;67.13
69535;BME280;56754;51.568;5.048;2023-03-23T00:08:07;100189.00;;;14.60;67.42
69535;BME280;56754;51.568;5.048;2023-03-23T00:10:34;100182.41;;;14.57;67.25
69535;BME280;56754;51.568;5.048;2023-03-23T00:13:00;100203.91;;;14.57;67.32
69535;BME280;56754;51.568;5.048;2023-03-23T00:15:25;100205.06;;;14.56;67.21
69535;BME280;56754;51.568;5.048;2023-03-23T00:17:50;100216.91;;;14.55;67.13
69535;BME280;56754;51.568;5.048;2023-03-23T00:20:16;100216.91;;;14.55;67.32
69535;BME280;56754;51.568;5.048;2023-03-23T00:22:41;100218.06;;;14.54;67.35
69535;BME280;56754;51.568;5.048;2023-03-23T00:25:07;100227.69;;;14.55;67.41
69535;BME280;56754;51.568;5.048;2023-03-23T00:27:33;100217.28;;;14.53;67.24
69535;BME280;56754;51.568;5.048;2023-03-23T00:29:58;100204.19;;;14.52;67.27
69535;BME280;56754;51.568;5.048;2023-03-23T00:32:24;100173.81;;;14.51;67.42
69535;BME280;56754;51.568;5.048;2023-03-23T00:34:50;100152.31;;;14.51;67.54
69535;BME280;56754;51.568;5.048;2023-03-23T00:37:15;100144.25;;;14.51;67.76
69535;BME280;56754;51.568;5.048;2023-03-23T00:39:40;100146.13;;;14.51;67.83
69535;BME280;56754;51.568;5.048;2023-03-23T00:42:06;100124.63;;;14.51;67.84
69535;BME280;56754;51.568;5.048;2023-03-23T00:44:32;100133.81;;;14.50;67.79
69535;BME280;56754;51.568;5.048;2023-03-23T00:46:58;100145.34;;;14.50;67.67
69535;BME280;56754;51.568;5.048;2023-03-23T00:49:24;100143.00;;;14.49;67.66
69535;BME280;56754;51.568;5.048;2023-03-23T00:51:54;100143.00;;;14.49;67.78
69535;BME280;56754;51.568;5.048;2023-03-23T00:54:20;100134.53;;;14.47;67.74
69535;BME280;56754;51.568;5.048;2023-03-23T00:56:46;100140.25;;;14.45;67.62
69535;BME280;56754;51.568;5.048;2023-03-23T00:59:11;100147.53;;;14.45;67.48
69535;BME280;56754;51.568;5.048;2023-03-23T01:01:36;100146.00;;;14.44;67.51
69535;BME280;56754;51.568;5.048;2023-03-23T01:04:02;100160.53;;;14.43;67.47
69535;BME280;56754;51.568;5.048;2023-03-23T01:06:28;100168.59;;;14.43;67.64
69535;BME280;56754;51.568;5.048;2023-03-23T01:08:54;100151.25;;;14.40;67.89
69535;BME280;56754;51.568;5.048;2023-03-23T01:11:19;100122.50;;;14.41;67.85
69535;BME280;56754;51.568;5.048;2023-03-23T01:13:44;100144.34;;;14.39;68.02
69535;BME280;56754;51.568;5.048;2023-03-23T01:16:10;100138.19;;;14.39;68.17
69535;BME280;56754;51.568;5.048;2023-03-23T01:18:37;100133.16;;;14.37;68.05
69535;BME280;56754;51.568;5.048;2023-03-23T01:21:07;100119.72;;;14.37;68.05
69535;BME280;56754;51.568;5.048;2023-03-23T01:23:34;100124.31;;;14.37;68.06
69535;BME280;56754;51.568;5.048;2023-03-23T01:26:07;100125.44;;;14.36;67.98
69535;BME280;56754;51.568;5.048;2023-03-23T01:28:34;100128.13;;;14.36;68.18
69535;BME280;56754;51.568;5.048;2023-03-23T01:31:04;100109.66;;;14.34;68.15
69535;BME280;56754;51.568;5.048;2023-03-23T01:33:31;100114.25;;;14.33;68.17
69535;BME280;56754;51.568;5.048;2023-03-23T01:35:57;100102.72;;;14.33;68.47
69535;BME280;56754;51.568;5.048;2023-03-23T01:38:22;100112.72;;;14.32;68.03
69535;BME280;56754;51.568;5.048;2023-03-23T01:40:48;100113.81;;;14.31;68.45
69535;BME280;56754;51.568;5.048;2023-03-23T01:43:15;100115.75;;;14.31;68.43
69535;BME280;56754;51.568;5.048;2023-03-23T01:45:41;100120.34;;;14.30;68.07
69535;BME280;56754;51.568;5.048;2023-03-23T01:48:22;100112.63;;;14.29;67.92
69535;BME280;56754;51.568;5.048;2023-03-23T01:53:20;100105.69;;;14.28;67.98
69535;BME280;56754;51.568;5.048;2023-03-23T01:55:47;100106.81;;;14.27;68.00
69535;BME280;56754;51.568;5.048;2023-03-23T01:58:14;100094.53;;;14.26;67.96
69535;BME280;56754;51.568;5.048;2023-03-23T02:00:40;100083.78;;;14.26;67.90
69535;BME280;56754;51.568;5.048;2023-03-23T02:03:06;100080.28;;;14.25;68.03
69535;BME280;56754;51.568;5.048;2023-03-23T02:05:40;100087.25;;;14.26;68.50
69535;BME280;56754;51.568;5.048;2023-03-23T02:08:07;100067.66;;;14.26;68.44
69535;BME280;56754;51.568;5.048;2023-03-23T02:10:33;100076.06;;;14.24;68.53
69535;BME280;56754;51.568;5.048;2023-03-23T02:13:00;100079.50;;;14.25;68.29
69535;BME280;56754;51.568;5.048;2023-03-23T02:15:33;100079.50;;;14.25;68.41
69535;BME280;56754;51.568;5.048;2023-03-23T02:18:08;100086.03;;;14.24;68.11
69535;BME280;56754;51.568;5.048;2023-03-23T02:20:59;100090.97;;;14.22;68.05
69535;BME280;56754;51.568;5.048;2023-03-23T02:26:47;100096.72;;;14.20;67.86
69535;BME280;56754;51.568;5.048;2023-03-23T02:30:12;100097.81;;;14.19;67.92
69535;BME280;56754;51.568;5.048;2023-03-23T02:35:30;100088.97;;;14.19;67.60
69535;BME280;56754;51.568;5.048;2023-03-23T02:38:00;100082.84;;;14.18;68.37
69535;BME280;56754;51.568;5.048;2023-03-23T02:40:32;100082.06;;;14.18;67.81
69535;BME280;56754;51.568;5.048;2023-03-23T02:43:01;100072.09;;;14.18;68.53
69535;BME280;56754;51.568;5.048;2023-03-23T02:45:29;100080.16;;;14.18;67.92
69535;BME280;56754;51.568;5.048;2023-03-23T02:47:56;100074.00;;;14.18;67.82
69535;BME280;56754;51.568;5.048;2023-03-23T02:50:24;100080.16;;;14.18;68.08
69535;BME280;56754;51.568;5.048;2023-03-23T02:52:53;100073.22;;;14.17;67.72
69535;BME280;56754;51.568;5.048;2023-03-23T02:55:20;100074.00;;;14.18;68.32
69535;BME280;56754;51.568;5.048;2023-03-23T02:57:47;100074.34;;;14.16;67.99
69535;BME280;56754;51.568;5.048;2023-03-23T03:00:15;100087.00;;;14.16;67.72
69535;BME280;56754;51.568;5.048;2023-03-23T03:02:43;100085.44;;;14.15;67.69
69535;BME280;56754;51.568;5.048;2023-03-23T03:07:54;100076.63;;;14.14;67.76
69535;BME280;56754;51.568;5.048;2023-03-23T03:10:36;100073.94;;;14.14;67.87
69535;BME280;56754;51.568;5.048;2023-03-23T03:16:03;100079.31;;;14.14;67.58
69535;BME280;56754;51.568;5.048;2023-03-23T03:18:44;100084.25;;;14.12;67.87
69535;BME280;56754;51.568;5.048;2023-03-23T03:21:13;100082.31;;;14.13;67.63
69535;BME280;56754;51.568;5.048;2023-03-23T03:23:42;100088.47;;;14.13;67.90
69535;BME280;56754;51.568;5.048;2023-03-23T03:26:11;100083.09;;;14.13;67.88
69535;BME280;56754;51.568;5.048;2023-03-23T03:28:37;100084.69;;;14.14;68.34
69535;BME280;56754;51.568;5.048;2023-03-23T03:31:05;100091.94;;;14.14;67.56
69535;BME280;56754;51.568;5.048;2023-03-23T03:33:32;100093.50;;;14.15;67.60
69535;BME280;56754;51.568;5.048;2023-03-23T03:36:00;100088.47;;;14.13;67.19
69535;BME280;56754;51.568;5.048;2023-03-23T03:38:26;100093.06;;;14.13;67.43
69535;BME280;56754;51.568;5.048;2023-03-23T03:40:52;100079.31;;;14.14;67.96
69535;BME280;56754;51.568;5.048;2023-03-23T03:43:18;100083.09;;;14.13;67.11
69535;BME280;56754;51.568;5.048;2023-03-23T03:45:43;100084.25;;;14.12;67.49
69535;BME280;56754;51.568;5.048;2023-03-23T03:48:09;100082.69;;;14.11;66.85
69535;BME280;56754;51.568;5.048;2023-03-23T03:50:34;100082.31;;;14.13;67.11
69535;BME280;56754;51.568;5.048;2023-03-23T03:53:00;100083.81;;;14.10;67.27
69535;BME280;56754;51.568;5.048;2023-03-23T03:55:25;100096.13;;;14.11;66.79
69535;BME280;56754;51.568;5.048;2023-03-23T03:57:50;100093.44;;;14.11;67.67
69535;BME280;56754;51.568;5.048;2023-03-23T04:00:16;100090.75;;;14.11;67.66
69535;BME280;56754;51.568;5.048;2023-03-23T04:02:44;100091.53;;;14.11;67.70
69535;BME280;56754;51.568;5.048;2023-03-23T04:05:10;100089.63;;;14.12;67.54
69535;BME280;56754;51.568;5.048;2023-03-23T04:07:36;100096.47;;;14.09;66.59
69535;BME280;56754;51.568;5.048;2023-03-23T04:10:01;100090.75;;;14.11;66.91
69535;BME280;56754;51.568;5.048;2023-03-23T04:12:27;100098.81;;;14.11;67.48
69535;BME280;56754;51.568;5.048;2023-03-23T04:14:52;100096.13;;;14.11;67.46
69535;BME280;56754;51.568;5.048;2023-03-23T04:17:17;100103.81;;;14.13;67.50
69535;BME280;56754;51.568;5.048;2023-03-23T04:19:43;100106.88;;;14.11;66.63
69535;BME280;56754;51.568;5.048;2023-03-23T04:22:08;100110.66;;;14.10;67.03
69535;BME280;56754;51.568;5.048;2023-03-23T04:24:33;100112.59;;;14.09;67.38
69535;BME280;56754;51.568;5.048;2023-03-23T04:26:59;100122.56;;;14.09;66.40
69535;BME280;56754;51.568;5.048;2023-03-23T04:29:25;100119.09;;;14.08;66.45
69535;BME280;56754;51.568;5.048;2023-03-23T04:31:51;100128.63;;;14.06;66.31
69535;BME280;56754;51.568;5.048;2023-03-23T04:34:16;100134.00;;;14.06;66.48
69535;BME280;56754;51.568;5.048;2023-03-23T04:36:41;100139.38;;;14.06;66.88
69535;BME280;56754;51.568;5.048;2023-03-23T04:39:07;100124.38;;;14.05;67.18
69535;BME280;56754;51.568;5.048;2023-03-23T04:41:32;100127.06;;;14.05;67.14
69535;BME280;56754;51.568;5.048;2023-03-23T04:43:58;100130.56;;;14.05;66.22
69535;BME280;56754;51.568;5.048;2023-03-23T04:46:25;100127.88;;;14.05;66.62
69535;BME280;56754;51.568;5.048;2023-03-23T04:48:51;100121.69;;;14.05;66.43
69535;BME280;56754;51.568;5.048;2023-03-23T04:51:16;100121.69;;;14.05;66.97
69535;BME280;56754;51.568;5.048;2023-03-23T04:53:41;100120.13;;;14.04;67.34
69535;BME280;56754;51.568;5.048;2023-03-23T04:56:07;100122.81;;;14.04;67.43
69535;BME280;56754;51.568;5.048;2023-03-23T04:58:32;100119.81;;;14.05;67.32
69535;BME280;56754;51.568;5.048;2023-03-23T05:00:58;100121.69;;;14.05;67.19
69535;BME280;56754;51.568;5.048;2023-03-23T05:03:23;100120.91;;;14.04;66.63
69535;BME280;56754;51.568;5.048;2023-03-23T05:05:48;100122.06;;;14.03;67.35
69535;BME280;56754;51.568;5.048;2023-03-23T05:08:14;100117.44;;;14.04;67.50
69535;BME280;56754;51.568;5.048;2023-03-23T05:10:39;100122.06;;;14.03;67.14
69535;BME280;56754;51.568;5.048;2023-03-23T05:13:05;100128.19;;;14.04;67.22
69535;BME280;56754;51.568;5.048;2023-03-23T05:15:30;100126.66;;;14.03;66.96
69535;BME280;56754;51.568;5.048;2023-03-23T05:17:55;100127.41;;;14.03;67.54
69535;BME280;56754;51.568;5.048;2023-03-23T05:20:20;100125.88;;;14.02;67.77
69535;BME280;56754;51.568;5.048;2023-03-23T05:22:47;100132.03;;;14.03;68.34
69535;BME280;56754;51.568;5.048;2023-03-23T05:25:12;100129.34;;;14.03;67.68
69535;BME280;56754;51.568;5.048;2023-03-23T05:27:37;100124.72;;;14.03;68.69
69535;BME280;56754;51.568;5.048;2023-03-23T05:30:04;100115.13;;;14.02;67.72
69535;BME280;56754;51.568;5.048;2023-03-23T05:32:30;100117.00;;;14.02;67.72
69535;BME280;56754;51.568;5.048;2023-03-23T05:34:59;100123.97;;;14.03;68.94
69535;BME280;56754;51.568;5.048;2023-03-23T05:37:26;100123.97;;;14.03;68.57
69535;BME280;56754;51.568;5.048;2023-03-23T05:39:52;100127.41;;;14.03;67.98
69535;BME280;56754;51.568;5.048;2023-03-23T05:42:18;100129.34;;;14.03;67.54
69535;BME280;56754;51.568;5.048;2023-03-23T05:44:44;100137.41;;;14.03;67.53
69535;BME280;56754;51.568;5.048;2023-03-23T05:47:09;100121.59;;;14.01;67.48
69535;BME280;56754;51.568;5.048;2023-03-23T05:49:34;100136.19;;;14.00;66.89
69535;BME280;56754;51.568;5.048;2023-03-23T05:51:59;100136.97;;;14.01;67.38
69535;BME280;56754;51.568;5.048;2023-03-23T05:54:25;100131.94;;;13.99;67.02
69535;BME280;56754;51.568;5.048;2023-03-23T05:56:50;100136.50;;;13.99;67.08
69535;BME280;56754;51.568;5.048;2023-03-23T05:59:15;100149.19;;;13.98;67.34
69535;BME280;56754;51.568;5.048;2023-03-23T06:01:41;100151.09;;;13.98;67.38
69535;BME280;56754;51.568;5.048;2023-03-23T06:04:06;100144.94;;;13.97;67.34
69535;BME280;56754;51.568;5.048;2023-03-23T06:06:31;100153.00;;;13.97;67.10
69535;BME280;56754;51.568;5.048;2023-03-23T06:08:57;100151.09;;;13.98;67.13
69535;BME280;56754;51.568;5.048;2023-03-23T06:11:23;100164.53;;;13.98;67.20
69535;BME280;56754;51.568;5.048;2023-03-23T06:13:48;100176.03;;;13.98;68.15
69535;BME280;56754;51.568;5.048;2023-03-23T06:16:14;100170.34;;;14.00;68.03
69535;BME280;56754;51.568;5.048;2023-03-23T06:18:39;100172.59;;;13.98;66.83
69535;BME280;56754;51.568;5.048;2023-03-23T06:21:05;100178.72;;;13.98;67.25
69535;BME280;56754;51.568;5.048;2023-03-23T06:23:30;100186.00;;;13.98;67.80
69535;BME280;56754;51.568;5.048;2023-03-23T06:26:01;100183.31;;;13.98;67.25
69535;BME280;56754;51.568;5.048;2023-03-23T06:28:28;100187.16;;;13.97;68.06
69535;BME280;56754;51.568;5.048;2023-03-23T06:30:53;100200.59;;;13.97;68.17
69535;BME280;56754;51.568;5.048;2023-03-23T06:33:19;100209.75;;;13.96;68.59
69535;BME280;56754;51.568;5.048;2023-03-23T06:35:44;100222.06;;;13.97;68.68
69535;BME280;56754;51.568;5.048;2023-03-23T06:38:10;100223.19;;;13.96;68.87
69535;BME280;56754;51.568;5.048;2023-03-23T06:40:35;100229.69;;;13.95;68.93
69535;BME280;56754;51.568;5.048;2023-03-23T06:43:00;100232.38;;;13.95;69.03
69535;BME280;56754;51.568;5.048;2023-03-23T06:45:26;100247.72;;;13.94;69.32
69535;BME280;56754;51.568;5.048;2023-03-23T06:47:51;100236.97;;;13.94;69.35
69535;BME280;56754;51.568;5.048;2023-03-23T06:50:16;100224.69;;;13.93;69.52
69535;BME280;56754;51.568;5.048;2023-03-23T06:52:46;100231.94;;;13.93;69.89
69535;BME280;56754;51.568;5.048;2023-03-23T06:55:11;100227.69;;;13.92;69.88
69535;BME280;56754;51.568;5.048;2023-03-23T06:57:36;100234.63;;;13.93;70.04
69535;BME280;56754;51.568;5.048;2023-03-23T07:00:02;100232.31;;;13.91;69.82
69535;BME280;56754;51.568;5.048;2023-03-23T07:02:28;100236.91;;;13.91;69.91
69535;BME280;56754;51.568;5.048;2023-03-23T07:04:53;100229.94;;;13.89;69.80
69535;BME280;56754;51.568;5.048;2023-03-23T07:07:18;100232.63;;;13.89;70.08
69535;BME280;56754;51.568;5.048;2023-03-23T07:09:44;100231.53;;;13.91;69.91
69535;BME280;56754;51.568;5.048;2023-03-23T07:12:10;100224.56;;;13.89;70.07
69535;BME280;56754;51.568;5.048;2023-03-23T07:14:35;100236.09;;;13.90;70.09
69535;BME280;56754;51.568;5.048;2023-03-23T07:17:02;100228.84;;;13.91;69.85
69535;BME280;56754;51.568;5.048;2023-03-23T07:19:28;100232.63;;;13.89;69.64
69535;BME280;56754;51.568;5.048;2023-03-23T07:21:53;100240.69;;;13.89;69.87
69535;BME280;56754;51.568;5.048;2023-03-23T07:24:18;100240.69;;;13.89;69.72
69535;BME280;56754;51.568;5.048;2023-03-23T07:26:43;100247.19;;;13.88;69.67
69535;BME280;56754;51.568;5.048;2023-03-23T07:29:09;100237.59;;;13.87;69.64
69535;BME280;56754;51.568;5.048;2023-03-23T07:31:35;100245.66;;;13.87;69.67
69535;BME280;56754;51.568;5.048;2023-03-23T07:34:01;100242.97;;;13.87;69.71
69535;BME280;56754;51.568;5.048;2023-03-23T07:36:26;100250.22;;;13.87;69.63
69535;BME280;56754;51.568;5.048;2023-03-23T07:38:52;100260.19;;;13.86;69.70
69535;BME280;56754;51.568;5.048;2023-03-23T07:41:19;100272.06;;;13.85;69.66
69535;BME280;56754;51.568;5.048;2023-03-23T07:43:44;100269.38;;;13.85;69.71
69535;BME280;56754;51.568;5.048;2023-03-23T07:46:10;100269.72;;;13.84;69.80
69535;BME280;56754;51.568;5.048;2023-03-23T07:48:35;100273.53;;;13.83;69.62
69535;BME280;56754;51.568;5.048;2023-03-23T07:51:00;100266.94;;;13.80;69.66
69535;BME280;56754;51.568;5.048;2023-03-23T07:53:26;100273.44;;;13.79;69.82
69535;BME280;56754;51.568;5.048;2023-03-23T07:55:51;100288.00;;;13.78;69.48
69535;BME280;56754;51.568;5.048;2023-03-23T07:58:18;100292.56;;;13.78;69.72
69535;BME280;56754;51.568;5.048;2023-03-23T08:00:45;100294.94;;;13.79;69.93
69535;BME280;56754;51.568;5.048;2023-03-23T08:03:11;100293.03;;;13.80;69.56
69535;BME280;56754;51.568;5.048;2023-03-23T08:05:36;100289.66;;;13.83;69.50
69535;BME280;56754;51.568;5.048;2023-03-23T08:08:01;100283.59;;;13.86;69.66
69535;BME280;56754;51.568;5.048;2023-03-23T08:10:27;100276.31;;;13.86;69.60
69535;BME280;56754;51.568;5.048;2023-03-23T08:12:54;100286.28;;;13.86;69.51
69535;BME280;56754;51.568;5.048;2023-03-23T08:15:20;100288.63;;;13.87;69.21
69535;BME280;56754;51.568;5.048;2023-03-23T08:17:46;100301.69;;;13.89;69.34
69535;BME280;56754;51.568;5.048;2023-03-23T08:20:12;100296.00;;;13.91;69.08
69535;BME280;56754;51.568;5.048;2023-03-23T08:22:41;100277.19;;;13.91;69.01
69535;BME280;56754;51.568;5.048;2023-03-23T08:25:08;100276.50;;;13.94;69.39
69535;BME280;56754;51.568;5.048;2023-03-23T08:27:34;100273.47;;;13.95;69.21
69535;BME280;56754;51.568;5.048;2023-03-23T08:29:59;100284.28;;;13.99;69.25
69535;BME280;56754;51.568;5.048;2023-03-23T08:32:25;100285.50;;;14.01;68.99
69535;BME280;56754;51.568;5.048;2023-03-23T08:34:51;100299.38;;;14.03;68.64
69535;BME280;56754;51.568;5.048;2023-03-23T08:37:16;100298.63;;;14.03;68.44
69535;BME280;56754;51.568;5.048;2023-03-23T08:39:42;100293.25;;;14.03;68.35
69535;BME280;56754;51.568;5.048;2023-03-23T08:42:07;100300.16;;;14.04;68.29
69535;BME280;56754;51.568;5.048;2023-03-23T08:44:32;100314.81;;;14.06;67.93
69535;BME280;56754;51.568;5.048;2023-03-23T08:46:58;100310.22;;;14.07;67.98
69535;BME280;56754;51.568;5.048;2023-03-23T08:49:23;100311.44;;;14.09;67.80
69535;BME280;56754;51.568;5.048;2023-03-23T08:51:49;100303.81;;;14.11;67.81
69535;BME280;56754;51.568;5.048;2023-03-23T08:54:14;100305.38;;;14.13;67.85
69535;BME280;56754;51.568;5.048;2023-03-23T08:56:40;100309.28;;;14.15;67.65
69535;BME280;56754;51.568;5.048;2023-03-23T08:59:05;100300.09;;;14.16;67.16
69535;BME280;56754;51.568;5.048;2023-03-23T09:01:30;100309.72;;;14.17;67.61
69535;BME280;56754;51.568;5.048;2023-03-23T09:03:56;100298.28;;;14.20;67.66
69535;BME280;56754;51.568;5.048;2023-03-23T09:06:21;100297.94;;;14.22;68.16
69535;BME280;56754;51.568;5.048;2023-03-23T09:08:46;100292.63;;;14.25;67.89
69535;BME280;56754;51.568;5.048;2023-03-23T09:11:12;100295.31;;;14.25;68.28
69535;BME280;56754;51.568;5.048;2023-03-23T09:13:38;100303.06;;;14.27;68.29
69535;BME280;56754;51.568;5.048;2023-03-23T09:16:05;100292.38;;;14.30;67.43
69535;BME280;56754;51.568;5.048;2023-03-23T09:18:31;100302.44;;;14.33;67.73
69535;BME280;56754;51.568;5.048;2023-03-23T09:20:57;100297.84;;;14.34;67.55
69535;BME280;56754;51.568;5.048;2023-03-23T09:23:22;100305.22;;;14.37;67.71
69535;BME280;56754;51.568;5.048;2023-03-23T09:25:47;100310.69;;;14.41;67.59
69535;BME280;56754;51.568;5.048;2023-03-23T09:28:13;100302.63;;;14.41;67.17
69535;BME280;56754;51.568;5.048;2023-03-23T09:30:39;100306.09;;;14.41;67.42
69535;BME280;56754;51.568;5.048;2023-03-23T09:33:05;100311.09;;;14.43;67.64
69535;BME280;56754;51.568;5.048;2023-03-23T09:35:32;100310.34;;;14.42;66.77
69535;BME280;56754;51.568;5.048;2023-03-23T09:37:58;100313.03;;;14.42;67.17
69535;BME280;56754;51.568;5.048;2023-03-23T09:41:12;100310.34;;;14.42;67.38
69535;BME280;56754;51.568;5.048;2023-03-23T09:48:52;100329.53;;;14.41;67.60
69535;BME280;56754;51.568;5.048;2023-03-23T09:53:56;100323.00;;;14.42;67.29
69535;BME280;56754;51.568;5.048;2023-03-23T09:56:25;100329.53;;;14.41;66.98
69535;BME280;56754;51.568;5.048;2023-03-23T09:58:58;100334.91;;;14.41;67.06
69535;BME280;56754;51.568;5.048;2023-03-23T10:01:32;100337.59;;;14.41;67.00
69535;BME280;56754;51.568;5.048;2023-03-23T10:04:10;100334.53;;;14.42;66.86
69535;BME280;56754;51.568;5.048;2023-03-23T10:06:38;100354.50;;;14.41;66.70
69535;BME280;56754;51.568;5.048;2023-03-23T10:09:04;100334.09;;;14.40;66.33
69535;BME280;56754;51.568;5.048;2023-03-23T10:11:50;100332.97;;;14.41;67.46
69535;BME280;56754;51.568;5.048;2023-03-23T10:22:38;100344.66;;;14.49;67.07
69535;BME280;56754;51.568;5.048;2023-03-23T10:27:59;100352.06;;;14.52;66.14
69535;BME280;56754;51.568;5.048;2023-03-23T10:30:30;100347.13;;;14.54;66.25
69535;BME280;56754;51.568;5.048;2023-03-23T10:33:02;100352.53;;;14.54;66.38
69535;BME280;56754;51.568;5.048;2023-03-23T10:35:45;100346.44;;;14.57;66.04
69535;BME280;56754;51.568;5.048;2023-03-23T10:38:17;100343.41;;;14.59;66.24
69535;BME280;56754;51.568;5.048;2023-03-23T10:40:59;100338.03;;;14.59;65.13
69535;BME280;56754;51.568;5.048;2023-03-23T10:43:25;100342.63;;;14.58;65.16
69535;BME280;56754;51.568;5.048;2023-03-23T10:45:57;100343.41;;;14.59;65.17
69535;BME280;56754;51.568;5.048;2023-03-23T10:50:57;100343.06;;;14.60;65.87
69535;BME280;56754;51.568;5.048;2023-03-23T10:53:29;100347.75;;;14.63;65.12
69535;BME280;56754;51.568;5.048;2023-03-23T10:55:56;100346.97;;;14.63;65.01
69535;BME280;56754;51.568;5.048;2023-03-23T10:58:29;100340.81;;;14.62;64.11
69535;BME280;56754;51.568;5.048;2023-03-23T11:00:55;100342.38;;;14.63;65.33
69535;BME280;56754;51.568;5.048;2023-03-23T11:06:05;100346.28;;;14.66;64.31
69535;BME280;56754;51.568;5.048;2023-03-23T11:11:26;100351.41;;;14.71;64.91
69535;BME280;56754;51.568;5.048;2023-03-23T11:14:00;100351.81;;;14.73;64.75
69535;BME280;56754;51.568;5.048;2023-03-23T11:16:29;100358.78;;;14.74;64.71
69535;BME280;56754;51.568;5.048;2023-03-23T11:18:55;100352.63;;;14.73;63.70
69535;BME280;56754;51.568;5.048;2023-03-23T11:21:22;100350.69;;;14.74;63.42
69535;BME280;56754;51.568;5.048;2023-03-23T11:23:54;100353.84;;;14.76;64.30
69535;BME280;56754;51.568;5.048;2023-03-23T11:26:26;100356.16;;;14.77;63.72
69535;BME280;56754;51.568;5.048;2023-03-23T11:29:15;100348.88;;;14.78;64.01
69535;BME280;56754;51.568;5.048;2023-03-23T11:31:50;100347.75;;;14.79;63.51
69535;BME280;56754;51.568;5.048;2023-03-23T11:37:03;100339.69;;;14.79;63.54
69535;BME280;56754;51.568;5.048;2023-03-23T11:39:33;100345.47;;;14.81;62.71
69535;BME280;56754;51.568;5.048;2023-03-23T11:42:11;100366.22;;;14.81;62.68
69535;BME280;56754;51.568;5.048;2023-03-23T11:44:42;100349.31;;;14.80;63.27
69535;BME280;56754;51.568;5.048;2023-03-23T11:50:00;100347.13;;;14.86;63.65
69535;BME280;56754;51.568;5.048;2023-03-23T11:52:52;100342.16;;;14.88;62.76
69535;BME280;56754;51.568;5.048;2023-03-23T11:55:26;100339.13;;;14.89;63.73
69535;BME280;56754;51.568;5.048;2023-03-23T11:57:55;100337.28;;;14.93;63.61
69535;BME280;56754;51.568;5.048;2023-03-23T12:00:21;100330.81;;;14.94;63.09
69535;BME280;56754;51.568;5.048;2023-03-23T12:02:56;100328.97;;;14.98;63.50
69535;BME280;56754;51.568;5.048;2023-03-23T12:05:29;100327.47;;;15.01;63.65
69535;BME280;56754;51.568;5.048;2023-03-23T12:18:46;100350.72;;;15.09;62.79
69535;BME280;56754;51.568;5.048;2023-03-23T12:21:28;100354.97;;;15.10;62.01
69535;BME280;56754;51.568;5.048;2023-03-23T12:24:26;100336.56;;;15.12;62.37
69535;BME280;56754;51.568;5.048;2023-03-23T12:27:17;100318.94;;;15.15;62.21
69535;BME280;56754;51.568;5.048;2023-03-23T12:35:22;100330.22;;;15.20;61.68
69535;BME280;56754;51.568;5.048;2023-03-23T12:38:26;100317.94;;;15.23;61.44
69535;BME280;56754;51.568;5.048;2023-03-23T12:46:39;100316.63;;;15.33;61.28
69535;BME280;56754;51.568;5.048;2023-03-23T12:51:40;100305.56;;;15.38;60.47
69535;BME280;56754;51.568;5.048;2023-03-23T13:02:32;100326.81;;;15.43;61.80
69535;BME280;56754;51.568;5.048;2023-03-23T13:05:06;100323.00;;;15.44;60.75
69535;BME280;56754;51.568;5.048;2023-03-23T13:07:40;100327.69;;;15.47;61.62
69535;BME280;56754;51.568;5.048;2023-03-23T13:10:18;100339.25;;;15.47;61.12
69535;BME280;56754;51.568;5.048;2023-03-23T13:12:44;100337.31;;;15.48;61.44
69535;BME280;56754;51.568;5.048;2023-03-23T13:15:18;100336.53;;;15.47;60.74
69535;BME280;56754;51.568;5.048;2023-03-23T13:23:20;100366.16;;;15.47;61.76
69535;BME280;56754;51.568;5.048;2023-03-23T13:28:24;100378.88;;;15.47;62.20
69535;BME280;56754;51.568;5.048;2023-03-23T13:33:22;100356.19;;;15.48;62.48
69535;BME280;56754;51.568;5.048;2023-03-23T13:35:49;100343.16;;;15.50;62.46
69535;BME280;56754;51.568;5.048;2023-03-23T13:38:25;100349.72;;;15.53;62.78
69535;BME280;56754;51.568;5.048;2023-03-23T13:40:52;100349.00;;;15.56;62.64
69535;BME280;56754;51.568;5.048;2023-03-23T13:43:32;100339.09;;;15.60;62.53
69535;BME280;56754;51.568;5.048;2023-03-23T13:46:10;100338.38;;;15.63;63.20
69535;BME280;56754;51.568;5.048;2023-03-23T13:48:45;100335.44;;;15.68;63.19
69535;BME280;56754;51.568;5.048;2023-03-23T13:54:06;100313.69;;;15.77;63.19
69535;BME280;56754;51.568;5.048;2023-03-23T13:59:27;100308.41;;;15.84;63.24
69535;BME280;56754;51.568;5.048;2023-03-23T14:02:26;100316.91;;;15.86;63.13
69535;BME280;56754;51.568;5.048;2023-03-23T14:04:50;100318.47;;;15.87;63.21
69535;BME280;56754;51.568;5.048;2023-03-23T14:07:17;100298.88;;;15.90;63.21
69535;BME280;56754;51.568;5.048;2023-03-23T14:09:43;100302.78;;;15.92;63.11
69535;BME280;56754;51.568;5.048;2023-03-23T14:12:17;100300.53;;;15.95;63.25
69535;BME280;56754;51.568;5.048;2023-03-23T14:14:49;100297.47;;;15.96;63.02
69535;BME280;56754;51.568;5.048;2023-03-23T14:17:22;100304.41;;;15.97;63.18
69535;BME280;56754;51.568;5.048;2023-03-23T14:19:51;100306.81;;;16.02;63.01
69535;BME280;56754;51.568;5.048;2023-03-23T14:22:46;100301.13;;;16.07;62.96
69535;BME280;56754;51.568;5.048;2023-03-23T14:25:16;100277.34;;;16.13;62.59
69535;BME280;56754;51.568;5.048;2023-03-23T14:27:43;100268.16;;;16.18;62.84
69535;BME280;56754;51.568;5.048;2023-03-23T14:30:14;100265.16;;;16.23;62.74
69535;BME280;56754;51.568;5.048;2023-03-23T14:32:40;100255.25;;;16.27;62.89